Time;durP1;ratioP1;P1;durP2;ratioP2;P2;SDS_P1;SDS_P2;PMS_P1;PMS_P2;Temp;Humidity;BMP_temperature;BMP_pressure;BME280_temperature;BME280_humidity;BME280_pressure;Samples;Min_cycle;Max_cycle;Signal;HPM_P1;HPM_P2
2023/08/17 00:01:42;;;;;;;20.63;7.28;;;16.60;99.90;;;;;;5063869;28;20067;-82
2023/08/17 00:04:08;;;;;;;21.45;7.18;;;16.60;99.90;;;;;;5075340;28;20048;-81
2023/08/17 00:06:36;;;;;;;17.38;6.72;;;16.70;99.90;;;;;;5075515;28;20028;-82
2023/08/17 00:09:03;;;;;;;18.00;8.02;;;16.70;99.90;;;;;;5075100;28;20036;-82
2023/08/17 00:11:30;;;;;;;20.05;8.00;;;16.70;99.90;;;;;;5065926;28;20047;-82
2023/08/17 00:13:57;;;;;;;21.10;7.57;;;16.80;99.90;;;;;;5079448;28;20041;-81
2023/08/17 00:16:25;;;;;;;19.90;7.20;;;16.80;99.90;;;;;;5071471;28;20463;-81
2023/08/17 00:18:52;;;;;;;16.73;7.75;;;16.80;99.90;;;;;;5084377;28;20411;-80
2023/08/17 00:21:18;;;;;;;15.18;7.22;;;16.80;99.90;;;;;;5092497;28;20040;-79
2023/08/17 00:23:45;;;;;;;14.20;6.60;;;16.80;99.90;;;;;;5038454;28;20079;-80
2023/08/17 00:26:11;;;;;;;17.40;7.90;;;16.80;99.90;;;;;;5054953;28;20039;-81
2023/08/17 00:28:38;;;;;;;16.15;6.85;;;16.80;99.90;;;;;;5071164;28;20036;-81
2023/08/17 00:31:05;;;;;;;21.85;8.02;;;16.80;99.90;;;;;;5082545;28;20101;-81
2023/08/17 00:33:32;;;;;;;16.20;7.53;;;16.80;99.90;;;;;;5067879;28;20052;-80
2023/08/17 00:35:59;;;;;;;17.25;7.00;;;16.80;99.90;;;;;;5083253;28;20102;-81
2023/08/17 00:38:25;;;;;;;19.48;7.75;;;16.80;99.90;;;;;;5055733;28;20049;-81
2023/08/17 00:40:52;;;;;;;22.70;7.22;;;16.80;99.90;;;;;;5090195;28;20036;-80
2023/08/17 00:43:19;;;;;;;17.80;7.60;;;16.70;99.90;;;;;;5095109;28;20048;-82
2023/08/17 00:45:45;;;;;;;20.08;7.85;;;16.70;99.90;;;;;;5069105;28;20128;-82
2023/08/17 00:48:12;;;;;;;17.67;7.57;;;16.60;99.90;;;;;;5063003;28;20051;-80
2023/08/17 00:50:40;;;;;;;19.17;7.03;;;16.60;99.90;;;;;;5088555;28;20063;-81
2023/08/17 00:53:07;;;;;;;20.25;8.65;;;16.70;99.90;;;;;;5066974;28;20509;-81
2023/08/17 00:55:34;;;;;;;16.77;7.40;;;16.70;99.90;;;;;;5081947;28;20445;-80
2023/08/17 00:58:01;;;;;;;17.42;7.63;;;16.60;99.90;;;;;;5080710;28;20420;-80
2023/08/17 01:00:28;;;;;;;19.30;7.22;;;16.60;99.90;;;;;;5094451;28;20062;-81
2023/08/17 01:02:57;;;;;;;16.05;7.25;;;16.50;99.90;;;;;;5062055;28;20110;-81
2023/08/17 01:05:24;;;;;;;16.80;7.55;;;16.50;99.90;;;;;;5065256;28;20095;-80
2023/08/17 01:07:51;;;;;;;23.08;7.13;;;16.50;99.90;;;;;;5054297;28;20041;-81
2023/08/17 01:10:17;;;;;;;17.75;7.18;;;16.50;99.90;;;;;;5054007;28;20456;-80
2023/08/17 01:12:44;;;;;;;18.70;7.45;;;16.50;99.90;;;;;;5052051;28;20405;-81
2023/08/17 01:15:11;;;;;;;18.48;7.45;;;16.40;99.90;;;;;;5094230;28;20118;-81
2023/08/17 01:17:38;;;;;;;18.10;6.88;;;16.40;99.90;;;;;;5069526;28;20076;-81
2023/08/17 01:20:05;;;;;;;15.27;6.60;;;16.40;99.90;;;;;;5076996;28;20028;-81
2023/08/17 01:22:33;;;;;;;21.45;7.15;;;16.30;99.90;;;;;;5066202;28;20040;-80
2023/08/17 01:24:59;;;;;;;20.10;7.32;;;16.30;99.90;;;;;;5084764;28;20071;-81
2023/08/17 01:27:28;;;;;;;20.98;8.07;;;16.20;99.90;;;;;;5052966;28;20053;-80
2023/08/17 01:29:56;;;;;;;16.58;7.30;;;16.30;99.90;;;;;;5054841;28;20481;-81
2023/08/17 01:32:22;;;;;;;19.85;6.95;;;16.20;99.90;;;;;;5090789;28;20126;-80
2023/08/17 01:34:49;;;;;;;15.70;6.72;;;16.20;99.90;;;;;;5055962;28;20041;-81
2023/08/17 01:37:16;;;;;;;14.93;6.93;;;16.20;99.90;;;;;;5056892;28;20037;-82
2023/08/17 01:39:43;;;;;;;16.02;7.20;;;16.20;99.90;;;;;;5073564;28;20392;-81
2023/08/17 01:42:09;;;;;;;21.27;7.45;;;16.20;99.90;;;;;;5088608;28;20052;-81
2023/08/17 01:44:36;;;;;;;16.92;7.15;;;16.20;99.90;;;;;;5093877;28;20036;-80
2023/08/17 01:47:03;;;;;;;17.30;7.43;;;16.20;99.90;;;;;;5050416;28;20045;-81
2023/08/17 01:49:29;;;;;;;18.25;7.07;;;16.30;99.90;;;;;;5069740;28;20037;-79
2023/08/17 01:51:57;;;;;;;19.40;6.90;;;16.30;99.90;;;;;;5085694;28;20105;-80
2023/08/17 01:54:23;;;;;;;18.10;7.43;;;16.30;99.90;;;;;;5086811;28;20037;-81
2023/08/17 01:56:51;;;;;;;17.50;7.18;;;16.30;99.90;;;;;;5072706;28;20071;-79
2023/08/17 01:59:18;;;;;;;21.00;7.28;;;16.40;99.90;;;;;;5060856;28;20122;-80
2023/08/17 02:01:45;;;;;;;16.25;6.20;;;16.40;99.90;;;;;;5060349;28;20067;-81
2023/08/17 02:04:11;;;;;;;17.92;6.82;;;16.40;99.90;;;;;;5081673;28;20078;-79
2023/08/17 02:06:38;;;;;;;17.63;6.90;;;16.40;99.90;;;;;;5042303;28;20148;-78
2023/08/17 02:09:05;;;;;;;20.83;6.88;;;16.50;99.90;;;;;;5073238;28;20441;-81
2023/08/17 02:11:32;;;;;;;16.60;6.10;;;16.50;99.90;;;;;;5066470;28;20224;-80
2023/08/17 02:13:59;;;;;;;24.63;6.72;;;16.50;99.90;;;;;;5074129;28;20044;-81
2023/08/17 02:16:25;;;;;;;21.25;6.70;;;16.60;99.90;;;;;;5068823;28;20062;-82
2023/08/17 02:18:52;;;;;;;16.58;6.47;;;16.60;99.90;;;;;;5073659;28;20476;-81
2023/08/17 02:21:19;;;;;;;14.10;6.38;;;16.60;99.90;;;;;;5072707;28;20041;-82
2023/08/17 02:23:46;;;;;;;19.42;6.85;;;16.60;99.90;;;;;;5091207;28;20036;-82
2023/08/17 02:26:13;;;;;;;16.55;6.30;;;16.60;99.90;;;;;;5089956;28;20039;-81
2023/08/17 02:28:39;;;;;;;13.55;6.07;;;16.60;99.90;;;;;;5065672;28;20131;-82
2023/08/17 02:31:06;;;;;;;15.23;5.97;;;16.60;99.90;;;;;;5090469;28;20044;-80
2023/08/17 02:33:33;;;;;;;13.85;5.53;;;16.60;99.90;;;;;;5076091;28;20136;-82
2023/08/17 02:36:01;;;;;;;13.90;5.85;;;16.60;99.90;;;;;;5069239;28;20436;-81
2023/08/17 02:38:28;;;;;;;17.25;5.68;;;16.70;99.90;;;;;;5072455;28;20067;-81
2023/08/17 02:40:55;;;;;;;16.65;6.13;;;16.70;99.90;;;;;;5065561;28;20036;-81
2023/08/17 02:43:21;;;;;;;15.45;5.93;;;16.70;99.90;;;;;;5068745;28;20064;-82
2023/08/17 02:45:50;;;;;;;18.25;6.50;;;16.70;99.90;;;;;;5050803;28;20046;-81
2023/08/17 02:48:19;;;;;;;21.08;6.40;;;16.70;99.90;;;;;;5038793;28;20036;-80
2023/08/17 02:50:46;;;;;;;12.55;5.32;;;16.70;99.90;;;;;;5042787;28;20128;-81
2023/08/17 02:53:12;;;;;;;20.30;6.55;;;16.70;99.90;;;;;;5019327;28;20056;-81
2023/08/17 02:55:39;;;;;;;17.75;5.78;;;16.60;99.90;;;;;;5051669;28;20056;-80
2023/08/17 02:58:08;;;;;;;17.67;5.95;;;16.60;99.90;;;;;;5046023;28;20049;-80
2023/08/17 03:00:35;;;;;;;12.65;5.45;;;16.60;99.90;;;;;;5058582;28;20139;-80
2023/08/17 03:03:02;;;;;;;23.02;5.75;;;16.60;99.90;;;;;;5058784;28;20047;-81
2023/08/17 03:05:30;;;;;;;16.40;5.80;;;16.60;99.90;;;;;;5039929;28;20099;-81
2023/08/17 03:07:57;;;;;;;14.55;5.32;;;16.70;99.90;;;;;;5042367;28;20039;-81
2023/08/17 03:10:24;;;;;;;12.38;4.75;;;16.70;99.90;;;;;;5050412;28;20037;-82
2023/08/17 03:12:51;;;;;;;16.05;5.20;;;16.70;99.90;;;;;;5040189;28;20057;-82
2023/08/17 03:15:19;;;;;;;13.55;5.28;;;16.80;99.90;;;;;;5043486;28;20767;-81
2023/08/17 03:17:47;;;;;;;17.13;5.22;;;16.80;99.90;;;;;;5047286;28;20067;-81
2023/08/17 03:20:14;;;;;;;20.58;5.00;;;16.80;99.90;;;;;;5052429;28;20033;-80
2023/08/17 03:22:40;;;;;;;14.25;4.97;;;16.80;99.90;;;;;;5027562;28;20366;-80
2023/08/17 03:25:07;;;;;;;17.30;4.80;;;16.90;99.90;;;;;;5047696;28;20045;-81
2023/08/17 03:27:34;;;;;;;17.70;5.32;;;16.90;99.90;;;;;;5021216;28;20120;-81
2023/08/17 03:30:02;;;;;;;12.95;4.40;;;16.90;99.90;;;;;;5019048;28;20068;-81
2023/08/17 03:32:29;;;;;;;18.40;5.85;;;16.90;99.90;;;;;;5046691;28;20103;-80
2023/08/17 03:34:57;;;;;;;15.82;4.53;;;16.90;99.90;;;;;;5030899;28;20127;-82
2023/08/17 03:37:24;;;;;;;16.60;5.18;;;16.90;99.90;;;;;;5043023;28;20043;-80
2023/08/17 03:39:51;;;;;;;18.92;5.43;;;16.90;99.90;;;;;;5038914;28;20049;-81
2023/08/17 03:42:18;;;;;;;19.95;5.65;;;16.90;99.90;;;;;;5062690;28;20048;-82
2023/08/17 03:44:44;;;;;;;14.68;5.60;;;16.90;99.90;;;;;;5064818;28;20088;-81
2023/08/17 03:47:11;;;;;;;14.07;5.57;;;16.90;99.90;;;;;;5089844;28;20051;-81
2023/08/17 03:49:38;;;;;;;14.63;4.88;;;17.00;99.90;;;;;;5069065;28;20117;-81
2023/08/17 03:52:05;;;;;;;17.88;4.97;;;17.00;99.90;;;;;;5066693;28;20127;-80
2023/08/17 03:54:31;;;;;;;11.18;4.53;;;17.00;99.90;;;;;;5060865;28;20387;-82
2023/08/17 03:56:59;;;;;;;21.73;5.22;;;17.00;99.90;;;;;;5086292;28;20116;-80
2023/08/17 03:59:26;;;;;;;13.15;5.13;;;17.00;99.90;;;;;;5082715;28;20365;-81
2023/08/17 04:01:53;;;;;;;12.48;4.40;;;17.00;99.90;;;;;;5056870;28;20052;-81
2023/08/17 04:04:20;;;;;;;11.38;4.10;;;17.00;99.90;;;;;;5070846;28;20444;-80
2023/08/17 04:06:49;;;;;;;17.00;5.07;;;17.00;99.90;;;;;;5069485;28;20044;-81
2023/08/17 04:09:15;;;;;;;17.42;4.65;;;16.90;99.90;;;;;;5061773;28;20403;-80
2023/08/17 04:11:42;;;;;;;13.68;4.35;;;16.90;99.90;;;;;;5055674;28;20051;-80
2023/08/17 04:14:09;;;;;;;23.08;4.57;;;17.00;99.90;;;;;;5048496;28;20135;-80
2023/08/17 04:16:37;;;;;;;15.63;3.92;;;17.00;99.90;;;;;;5064829;28;20063;-81
2023/08/17 04:19:04;;;;;;;14.85;4.15;;;17.00;99.90;;;;;;5095282;28;20059;-79
2023/08/17 04:21:31;;;;;;;12.25;3.97;;;17.00;99.90;;;;;;5089124;28;20045;-81
2023/08/17 04:23:58;;;;;;;15.13;4.18;;;16.90;99.90;;;;;;5056096;28;20128;-80
2023/08/17 04:26:25;;;;;;;14.18;3.75;;;16.90;99.90;;;;;;5082426;28;20050;-80
2023/08/17 04:28:52;;;;;;;15.18;4.30;;;16.90;99.90;;;;;;5061172;28;20048;-80
2023/08/17 04:31:19;;;;;;;10.27;3.63;;;16.90;99.90;;;;;;5075991;28;20057;-80
2023/08/17 04:33:53;;;;;;;15.95;4.40;;;16.90;99.90;;;;;;5082672;28;20044;-81
2023/08/17 04:36:21;;;;;;;19.45;3.67;;;16.90;99.90;;;;;;5038192;28;20434;-80
2023/08/17 04:38:47;;;;;;;9.70;4.00;;;16.90;99.90;;;;;;5054209;28;20152;-81
2023/08/17 04:41:14;;;;;;;11.93;3.58;;;17.00;99.90;;;;;;5067438;28;20162;-82
2023/08/17 04:43:42;;;;;;;13.25;3.95;;;17.00;99.90;;;;;;5058245;28;20135;-80
2023/08/17 04:46:09;;;;;;;11.13;4.00;;;17.00;99.90;;;;;;5057043;28;20463;-81
2023/08/17 04:48:36;;;;;;;12.43;3.88;;;17.00;99.90;;;;;;5034060;28;20045;-79
2023/08/17 04:51:03;;;;;;;10.82;3.70;;;16.90;99.90;;;;;;5018143;28;20049;-80
2023/08/17 04:53:30;;;;;;;12.02;4.18;;;16.90;99.90;;;;;;5037372;28;20067;-80
2023/08/17 04:55:56;;;;;;;15.88;4.32;;;16.80;99.90;;;;;;5070951;28;20050;-81
2023/08/17 04:58:24;;;;;;;12.80;3.88;;;16.80;99.90;;;;;;5018103;28;20110;-81
2023/08/17 05:00:51;;;;;;;15.43;4.30;;;16.80;99.90;;;;;;5046099;28;20427;-80
2023/08/17 05:03:18;;;;;;;16.40;3.70;;;16.80;99.90;;;;;;5050886;28;20142;-81
2023/08/17 05:05:59;;;;;;;16.05;4.38;;;16.80;99.90;;;;;;5049773;28;20044;-82
2023/08/17 05:08:26;;;;;;;11.70;3.97;;;16.80;99.90;;;;;;5017806;28;20379;-81
2023/08/17 05:10:53;;;;;;;12.20;3.70;;;16.80;99.90;;;;;;5017810;28;20064;-82
2023/08/17 05:13:20;;;;;;;11.45;3.88;;;16.80;99.90;;;;;;5016912;28;20104;-82
2023/08/17 05:15:47;;;;;;;12.75;4.13;;;16.80;99.90;;;;;;5017682;28;20061;-81
2023/08/17 05:18:15;;;;;;;8.40;3.70;;;16.80;99.90;;;;;;5045431;28;20052;-81
2023/08/17 05:20:43;;;;;;;16.00;4.25;;;16.90;99.90;;;;;;5036913;28;20055;-80
2023/08/17 05:23:10;;;;;;;10.68;3.53;;;16.90;99.90;;;;;;5043650;28;20045;-82
2023/08/17 05:25:37;;;;;;;12.80;3.90;;;16.90;99.90;;;;;;5048985;28;20136;-81
2023/08/17 05:28:05;;;;;;;16.27;4.10;;;16.90;99.90;;;;;;5040650;28;20063;-81
2023/08/17 05:30:31;;;;;;;12.13;3.45;;;17.00;99.90;;;;;;5039897;28;20471;-80
2023/08/17 05:32:58;;;;;;;12.90;3.67;;;17.00;99.90;;;;;;5038789;28;20037;-80
2023/08/17 05:35:26;;;;;;;16.73;4.15;;;17.00;99.90;;;;;;5030579;28;20333;-81
2023/08/17 05:37:53;;;;;;;15.32;3.63;;;17.00;99.90;;;;;;5047382;28;20041;-81
2023/08/17 05:40:19;;;;;;;13.27;4.10;;;17.10;99.90;;;;;;5043705;28;20379;-81
2023/08/17 05:42:46;;;;;;;15.02;3.70;;;17.10;99.90;;;;;;5066437;28;20074;-82
2023/08/17 05:45:13;;;;;;;17.50;3.97;;;17.10;99.90;;;;;;5070312;28;20132;-80
2023/08/17 05:47:40;;;;;;;11.43;3.60;;;17.20;99.90;;;;;;5058625;28;20063;-80
2023/08/17 05:50:06;;;;;;;14.02;3.92;;;17.20;99.90;;;;;;5073285;28;20448;-80
2023/08/17 05:52:33;;;;;;;14.77;4.38;;;17.20;99.90;;;;;;5083127;28;20048;-81
2023/08/17 05:55:00;;;;;;;10.68;3.30;;;17.20;99.90;;;;;;5065260;28;20075;-81
2023/08/17 05:57:28;;;;;;;12.65;3.28;;;17.20;99.90;;;;;;5068806;28;20080;-82
2023/08/17 05:59:55;;;;;;;17.05;3.60;;;17.30;99.90;;;;;;5079644;28;20053;-80
2023/08/17 06:02:22;;;;;;;12.15;3.55;;;17.30;99.90;;;;;;5079939;28;20036;-80
2023/08/17 06:04:49;;;;;;;15.82;4.32;;;17.30;99.90;;;;;;5076742;28;20475;-81
2023/08/17 06:07:17;;;;;;;13.20;3.22;;;17.40;99.90;;;;;;5053425;28;20068;-82
2023/08/17 06:09:44;;;;;;;14.02;3.60;;;17.40;99.90;;;;;;5082274;28;20073;-79
2023/08/17 06:12:11;;;;;;;13.50;3.60;;;17.50;99.90;;;;;;5054242;28;20132;-80
2023/08/17 06:14:37;;;;;;;16.35;3.67;;;17.50;99.90;;;;;;5074648;28;20115;-81
2023/08/17 06:17:04;;;;;;;16.08;3.70;;;17.50;99.90;;;;;;5054286;28;20055;-81
2023/08/17 06:19:31;;;;;;;13.02;3.45;;;17.60;99.90;;;;;;5053074;28;20110;-81
2023/08/17 06:21:58;;;;;;;10.95;3.67;;;17.60;99.90;;;;;;5060565;28;20366;-81
2023/08/17 06:24:24;;;;;;;16.15;3.15;;;17.70;99.90;;;;;;5086955;28;20102;-82
2023/08/17 06:26:51;;;;;;;19.73;5.00;;;17.80;99.90;;;;;;5084012;28;20379;-80
2023/08/17 06:29:18;;;;;;;12.10;3.60;;;17.80;99.90;;;;;;5053913;28;20140;-80
2023/08/17 06:31:45;;;;;;;11.60;3.47;;;17.90;99.90;;;;;;5054007;28;20377;-81
2023/08/17 06:34:12;;;;;;;18.45;3.92;;;18.00;99.90;;;;;;5052190;28;20375;-81
2023/08/17 06:36:40;;;;;;;16.85;3.70;;;18.10;99.90;;;;;;5077980;28;20052;-80
2023/08/17 06:39:08;;;;;;;10.65;3.28;;;18.10;99.90;;;;;;5060494;28;20052;-80
2023/08/17 06:41:35;;;;;;;10.80;3.22;;;18.20;99.90;;;;;;5072819;28;20049;-81
2023/08/17 06:44:01;;;;;;;13.48;4.00;;;18.30;99.90;;;;;;5067816;28;20064;-80
2023/08/17 06:46:28;;;;;;;15.40;3.20;;;18.40;99.90;;;;;;5036129;28;20069;-80
2023/08/17 06:48:55;;;;;;;11.18;3.83;;;18.40;99.90;;;;;;5082074;28;20048;-81
2023/08/17 06:51:22;;;;;;;14.55;3.60;;;18.50;99.90;;;;;;5053278;28;20037;-81
2023/08/17 06:53:49;;;;;;;13.55;3.40;;;18.50;99.90;;;;;;5065668;28;20072;-82
2023/08/17 06:56:15;;;;;;;17.60;3.40;;;18.60;99.90;;;;;;5054933;28;20075;-82
2023/08/17 06:58:42;;;;;;;16.13;3.75;;;18.60;99.90;;;;;;5075671;28;20459;-81
2023/08/17 07:01:09;;;;;;;14.20;3.42;;;18.70;99.90;;;;;;5065377;28;20074;-80
2023/08/17 07:03:36;;;;;;;12.20;3.38;;;18.80;99.90;;;;;;5087956;28;20037;-81
2023/08/17 07:06:03;;;;;;;14.13;3.90;;;18.80;99.90;;;;;;5090864;28;20050;-81
2023/08/17 07:08:30;;;;;;;14.20;3.75;;;18.90;99.90;;;;;;5083790;28;20040;-81
2023/08/17 07:10:57;;;;;;;14.00;4.15;;;18.90;99.90;;;;;;5069051;28;20571;-80
2023/08/17 07:13:24;;;;;;;11.80;3.83;;;19.10;99.90;;;;;;5067478;28;20559;-80
2023/08/17 07:15:50;;;;;;;15.63;3.75;;;19.20;99.90;;;;;;5097816;28;20052;-81
2023/08/17 07:18:17;;;;;;;18.13;3.83;;;19.30;99.90;;;;;;5082185;28;20093;-81
2023/08/17 07:20:44;;;;;;;17.73;3.88;;;19.30;99.90;;;;;;5086453;28;20120;-79
2023/08/17 07:23:10;;;;;;;9.65;3.42;;;19.30;99.90;;;;;;5091263;28;20036;-80
2023/08/17 07:25:37;;;;;;;14.75;3.50;;;19.40;99.90;;;;;;5084909;28;20550;-80
2023/08/17 07:28:05;;;;;;;14.27;3.60;;;19.50;99.90;;;;;;5073600;28;20041;-83
2023/08/17 07:30:32;;;;;;;17.67;4.80;;;19.60;99.90;;;;;;5085249;28;20111;-81
2023/08/17 07:32:58;;;;;;;14.38;3.78;;;19.70;99.90;;;;;;5074633;28;20118;-84
2023/08/17 07:35:25;;;;;;;15.25;3.60;;;19.80;99.90;;;;;;5049190;28;20045;-81
2023/08/17 07:37:54;;;;;;;15.25;4.40;;;19.80;99.90;;;;;;5056946;28;20083;-81
2023/08/17 07:40:34;;;;;;;12.48;3.60;;;19.70;99.90;;;;;;5055920;28;20376;-82
2023/08/17 07:43:01;;;;;;;13.38;3.95;;;19.80;99.90;;;;;;5041712;28;20053;-80
2023/08/17 07:45:28;;;;;;;15.13;3.58;;;20.00;99.90;;;;;;5019697;28;20124;-81
2023/08/17 07:47:56;;;;;;;12.63;3.60;;;20.00;99.90;;;;;;5035439;28;20068;-80
2023/08/17 07:50:23;;;;;;;11.73;3.80;;;20.10;99.90;;;;;;5056227;28;20164;-83
2023/08/17 07:52:49;;;;;;;11.88;3.13;;;20.00;99.90;;;;;;5024332;28;20994;-83
2023/08/17 07:55:16;;;;;;;13.65;3.42;;;20.10;99.90;;;;;;5020102;28;20372;-82
2023/08/17 07:57:45;;;;;;;12.10;3.10;;;20.10;99.90;;;;;;5042210;28;20045;-83
2023/08/17 08:00:12;;;;;;;12.35;3.95;;;20.20;99.90;;;;;;5023994;28;20139;-82
2023/08/17 08:02:38;;;;;;;10.48;3.10;;;20.20;99.90;;;;;;5050560;28;20068;-83
2023/08/17 08:05:05;;;;;;;15.50;3.38;;;20.30;99.90;;;;;;5026742;28;20044;-81
2023/08/17 08:07:33;;;;;;;11.25;3.17;;;20.40;99.90;;;;;;5041862;28;20053;-82
2023/08/17 08:10:00;;;;;;;11.50;3.15;;;20.50;99.90;;;;;;5026888;28;20045;-80
2023/08/17 08:12:27;;;;;;;12.70;3.25;;;20.50;99.90;;;;;;5023972;28;20072;-82
2023/08/17 08:14:53;;;;;;;19.13;3.63;;;20.50;99.90;;;;;;5046504;28;20128;-81
2023/08/17 08:17:22;;;;;;;13.80;3.35;;;20.60;99.90;;;;;;5043439;28;20055;-82
2023/08/17 08:19:50;;;;;;;12.85;3.05;;;20.60;99.90;;;;;;5037007;28;20072;-82
2023/08/17 08:22:17;;;;;;;12.63;3.10;;;20.70;99.90;;;;;;5041786;28;20038;-81
2023/08/17 08:24:44;;;;;;;11.23;3.05;;;20.80;99.90;;;;;;5044235;28;20056;-83
2023/08/17 08:27:12;;;;;;;7.63;2.55;;;20.80;99.90;;;;;;5026052;28;20045;-81
2023/08/17 08:29:39;;;;;;;11.25;2.67;;;20.80;99.90;;;;;;5028174;28;20060;-83
2023/08/17 08:32:06;;;;;;;14.20;3.10;;;20.80;99.90;;;;;;5024673;28;20041;-83
2023/08/17 08:34:33;;;;;;;9.68;2.42;;;20.80;99.90;;;;;;5047078;28;20045;-82
2023/08/17 08:37:02;;;;;;;15.65;2.80;;;20.80;99.90;;;;;;5046344;28;20056;-82
2023/08/17 08:39:28;;;;;;;11.27;2.95;;;20.70;99.90;;;;;;5017452;28;20053;-82
2023/08/17 08:41:55;;;;;;;9.43;2.80;;;20.70;99.90;;;;;;5048569;28;20045;-84
2023/08/17 08:44:22;;;;;;;11.63;3.65;;;20.90;99.90;;;;;;5035837;28;20037;-82
2023/08/17 08:46:50;;;;;;;11.40;3.38;;;21.00;99.90;;;;;;5017476;28;20065;-82
2023/08/17 08:49:17;;;;;;;11.27;3.05;;;21.20;99.90;;;;;;5039844;28;20041;-82
2023/08/17 08:51:43;;;;;;;12.48;2.90;;;21.60;99.90;;;;;;5021661;28;20057;-82
2023/08/17 08:54:10;;;;;;;9.77;2.55;;;21.90;99.90;;;;;;5030324;28;20041;-81
2023/08/17 08:56:38;;;;;;;10.95;2.58;;;22.30;99.90;;;;;;5034910;28;20151;-83
2023/08/17 08:59:05;;;;;;;11.48;2.78;;;22.40;99.90;;;;;;5020710;28;20456;-82
2023/08/17 09:01:31;;;;;;;14.98;2.60;;;22.10;99.90;;;;;;5052441;28;20033;-83
2023/08/17 09:03:58;;;;;;;10.38;2.67;;;21.90;99.90;;;;;;5032366;28;20049;-83
2023/08/17 09:09:12;;;;;;;10.43;2.50;;;21.60;99.90;;;;;;5048636;28;20071;-83
2023/08/17 09:11:39;;;;;;;12.68;2.70;;;21.60;99.90;;;;;;5023738;28;20156;-83
2023/08/17 09:14:10;;;;;;;15.88;2.63;;;21.90;99.90;;;;;;5024497;28;20083;-83
2023/08/17 09:16:38;;;;;;;10.93;2.30;;;22.30;99.90;;;;;;5017804;28;20095;-82
2023/08/17 09:19:05;;;;;;;16.58;2.90;;;22.40;99.90;;;;;;5030844;28;20040;-82
2023/08/17 09:21:31;;;;;;;15.95;2.30;;;22.30;99.90;;;;;;5017560;28;20135;-83
2023/08/17 09:23:58;;;;;;;10.82;2.65;;;22.20;99.90;;;;;;5035413;28;20103;-84
2023/08/17 09:26:26;;;;;;;18.02;2.67;;;22.30;99.90;;;;;;5035407;28;20193;-82
2023/08/17 09:28:58;;;;;;;11.77;2.58;;;22.30;99.90;;;;;;5019831;28;20104;-84
2023/08/17 09:31:25;;;;;;;9.05;2.10;;;22.10;99.90;;;;;;5018297;28;20083;-84
2023/08/17 09:33:51;;;;;;;14.80;2.75;;;22.30;99.90;;;;;;5062028;28;20084;-84
2023/08/17 09:36:18;;;;;;;11.48;3.25;;;22.60;99.90;;;;;;5017335;28;20049;-84
2023/08/17 09:38:45;;;;;;;12.38;2.30;;;23.00;99.90;;;;;;5017477;28;20068;-85
2023/08/17 09:41:13;;;;;;;12.32;2.80;;;23.20;99.90;;;;;;5016700;28;20049;-82
2023/08/17 09:43:40;;;;;;;12.38;2.83;;;23.10;99.90;;;;;;5001483;28;20056;-82
2023/08/17 09:46:07;;;;;;;12.02;2.90;;;23.20;99.90;;;;;;5033875;28;20041;-84
2023/08/17 09:48:34;;;;;;;15.45;2.90;;;23.10;99.90;;;;;;5040088;28;20052;-83
2023/08/17 09:51:02;;;;;;;12.90;2.38;;;23.10;99.90;;;;;;5049672;28;20076;-83
2023/08/17 09:53:29;;;;;;;11.15;2.60;;;23.20;99.90;;;;;;5018059;28;20411;-83
2023/08/17 09:55:55;;;;;;;15.35;3.08;;;23.10;99.90;;;;;;5021448;28;20046;-83
2023/08/17 09:58:24;;;;;;;7.43;2.38;;;23.00;99.90;;;;;;5048653;28;20049;-82
2023/08/17 10:00:57;;;;;;;12.95;2.25;;;22.90;99.90;;;;;;5023234;28;20045;-85
2023/08/17 10:03:23;;;;;;;24.95;3.22;;;22.90;99.90;;;;;;5053331;28;20107;-84
2023/08/17 10:05:50;;;;;;;8.05;2.03;;;23.10;99.90;;;;;;5038244;28;20361;-85
2023/08/17 10:08:21;;;;;;;6.93;2.03;;;23.30;99.90;;;;;;5024276;28;20075;-82
2023/08/17 10:10:48;;;;;;;13.10;2.35;;;23.20;99.90;;;;;;5024667;28;20045;-83
2023/08/17 10:13:15;;;;;;;15.82;2.58;;;23.40;99.90;;;;;;5016286;28;20148;-85
2023/08/17 10:15:41;;;;;;;10.25;2.97;;;23.40;99.90;;;;;;5017611;28;20038;-85
2023/08/17 10:18:08;;;;;;;10.63;2.17;;;23.50;99.90;;;;;;5044760;28;20103;-85
2023/08/17 10:20:41;;;;;;;10.52;2.95;;;23.80;99.90;;;;;;5033698;28;20120;-84
2023/08/17 10:23:08;;;;;;;10.00;2.67;;;23.90;99.90;;;;;;5039351;28;20041;-82
2023/08/17 10:25:34;;;;;;;9.80;2.80;;;23.70;99.90;;;;;;5033390;28;20439;-85
2023/08/17 10:28:03;;;;;;;11.52;2.10;;;23.50;99.90;;;;;;5048504;28;20061;-84
2023/08/17 10:30:30;;;;;;;9.32;2.50;;;23.50;99.90;;;;;;5053791;28;20055;-84
2023/08/17 10:32:56;;;;;;;15.35;2.72;;;23.60;99.90;;;;;;5055702;28;20450;-82
2023/08/17 10:35:23;;;;;;;11.18;2.72;;;23.40;99.90;;;;;;5041025;28;20056;-84
2023/08/17 10:37:50;;;;;;;9.65;2.53;;;23.50;99.90;;;;;;5035261;28;20127;-82
2023/08/17 10:40:17;;;;;;;10.18;2.17;;;23.70;99.90;;;;;;5063602;28;20107;-82
2023/08/17 10:42:46;;;;;;;12.10;2.15;;;23.80;99.90;;;;;;5056339;28;20145;-85
2023/08/17 10:45:12;;;;;;;8.32;1.88;;;24.00;99.90;;;;;;5039155;28;20124;-85
2023/08/17 10:47:40;;;;;;;11.27;2.58;;;24.30;99.90;;;;;;5053676;28;20033;-82
2023/08/17 10:50:07;;;;;;;10.52;2.40;;;24.00;99.90;;;;;;5023834;28;20045;-81
2023/08/17 10:52:34;;;;;;;11.27;2.60;;;24.00;99.90;;;;;;5027197;28;20060;-84
2023/08/17 10:55:01;;;;;;;11.75;2.70;;;24.30;99.90;;;;;;5024404;28;20045;-83
2023/08/17 11:00:13;;;;;;;13.55;2.80;;;25.30;99.90;;;;;;5053641;28;20068;-85
2023/08/17 11:02:46;;;;;;;11.45;2.58;;;25.80;99.90;;;;;;5051924;28;20099;-84
2023/08/17 11:05:13;;;;;;;14.23;2.58;;;26.40;99.90;;;;;;5028614;28;20525;-82
2023/08/17 11:10:26;;;;;;;9.00;2.28;;;27.40;99.90;;;;;;5037240;28;20037;-84
2023/08/17 11:12:52;;;;;;;10.40;2.20;;;27.20;99.90;;;;;;5037540;28;20048;-82
2023/08/17 11:15:19;;;;;;;8.88;2.10;;;26.10;99.90;;;;;;5057778;28;20110;-83
2023/08/17 11:17:46;;;;;;;9.43;2.35;;;25.30;99.90;;;;;;5043783;28;20095;-82
2023/08/17 11:20:13;;;;;;;10.57;2.20;;;25.60;99.90;;;;;;5038939;28;20128;-82
2023/08/17 11:22:41;;;;;;;13.10;2.47;;;25.90;99.90;;;;;;5057126;28;20041;-82
2023/08/17 11:25:08;;;;;;;11.40;2.42;;;26.40;99.90;;;;;;5039300;28;20124;-81
2023/08/17 11:27:35;;;;;;;7.40;2.30;;;26.60;99.90;;;;;;5036499;28;20124;-81
2023/08/17 11:30:04;;;;;;;8.32;2.20;;;26.90;99.90;;;;;;5047070;28;20340;-82
2023/08/17 11:32:31;;;;;;;12.05;2.33;;;27.10;99.90;;;;;;5030828;28;20416;-81
2023/08/17 11:34:58;;;;;;;10.95;2.38;;;26.60;99.90;;;;;;5065732;28;20041;-81
2023/08/17 11:37:26;;;;;;;8.60;2.30;;;26.60;99.90;;;;;;5046510;28;20041;-81
2023/08/17 11:39:53;;;;;;;13.93;2.45;;;26.10;99.90;;;;;;5056331;28;20042;-81
2023/08/17 11:42:20;;;;;;;9.38;2.33;;;25.60;99.90;;;;;;5041348;28;20548;-80
2023/08/17 11:44:46;;;;;;;9.25;2.22;;;25.30;99.90;;;;;;5068883;28;20051;-81
2023/08/17 11:47:15;;;;;;;9.90;2.30;;;25.20;99.90;;;;;;5051284;28;20055;-81
2023/08/17 11:49:42;;;;;;;12.15;2.03;;;25.20;99.90;;;;;;5063237;28;20044;-81
2023/08/17 11:52:10;;;;;;;9.48;2.50;;;24.80;99.90;;;;;;5050452;28;20080;-81
2023/08/17 11:54:37;;;;;;;10.15;2.60;;;24.80;99.90;;;;;;5064140;28;20052;-81
2023/08/17 11:57:05;;;;;;;9.60;2.42;;;25.30;99.90;;;;;;5059647;28;20187;-81
2023/08/17 11:59:33;;;;;;;9.27;2.10;;;25.80;99.90;;;;;;5036631;28;20056;-81
2023/08/17 12:02:00;;;;;;;8.40;2.25;;;25.60;99.90;;;;;;5056782;28;20051;-80
2023/08/17 12:04:26;;;;;;;10.25;1.92;;;25.70;99.90;;;;;;5074383;28;20041;-81
2023/08/17 12:06:53;;;;;;;10.93;1.90;;;26.30;99.90;;;;;;5047553;28;20083;-82
2023/08/17 12:09:20;;;;;;;8.90;2.17;;;27.00;99.90;;;;;;5044861;28;20115;-82
2023/08/17 12:11:47;;;;;;;7.75;2.15;;;27.60;99.90;;;;;;5042912;28;20033;-83
2023/08/17 12:14:14;;;;;;;8.35;2.13;;;27.90;99.90;;;;;;5032170;28;20357;-83
2023/08/17 12:16:41;;;;;;;11.82;2.08;;;28.50;99.90;;;;;;5037469;28;20095;-82
2023/08/17 12:19:08;;;;;;;9.80;1.92;;;28.70;99.90;;;;;;5045161;28;20124;-83
2023/08/17 12:21:35;;;;;;;8.80;2.25;;;28.50;99.90;;;;;;5041882;28;20128;-83
2023/08/17 12:24:01;;;;;;;7.63;2.20;;;28.40;99.90;;;;;;5026240;28;20127;-84
2023/08/17 12:26:32;;;;;;;10.48;2.28;;;28.40;99.90;;;;;;5008644;28;20046;-81
2023/08/17 12:29:02;;;;;;;8.57;1.92;;;28.70;99.90;;;;;;5036149;28;20133;-82
2023/08/17 12:31:29;;;;;;;13.60;2.20;;;29.10;99.90;;;;;;5057910;28;20423;-82
2023/08/17 12:33:55;;;;;;;9.38;2.28;;;29.20;99.90;;;;;;5024174;28;20067;-81
2023/08/17 12:36:23;;;;;;;7.20;2.10;;;29.10;99.90;;;;;;5036545;28;20073;-82
2023/08/17 12:38:50;;;;;;;8.90;1.80;;;29.20;99.90;;;;;;5047822;28;20478;-81
2023/08/17 12:41:17;;;;;;;8.02;2.05;;;28.90;99.90;;;;;;5062720;28;20064;-83
2023/08/17 12:43:44;;;;;;;9.50;1.80;;;29.00;99.90;;;;;;5045033;28;20041;-82
2023/08/17 12:46:11;;;;;;;5.97;1.80;;;28.70;99.90;;;;;;5026157;28;20515;-82